createdAt,value
2019-05-16T00:00:15.308Z,13.5
2019-05-16T00:03:15.434Z,13.5
2019-05-16T00:06:15.079Z,13.6
2019-05-16T00:09:14.916Z,13.6
2019-05-16T00:12:15.068Z,13.6
2019-05-16T00:15:18.020Z,13.6
2019-05-16T00:18:17.819Z,13.6
2019-05-16T00:21:15.142Z,13.6
2019-05-16T00:24:14.847Z,13.6
2019-05-16T00:27:15.596Z,13.5
2019-05-16T00:30:15.018Z,13.5
2019-05-16T00:33:15.382Z,13.5
2019-05-16T00:36:15.308Z,13.5
2019-05-16T00:39:14.850Z,13.5
2019-05-16T00:42:17.894Z,13.4
2019-05-16T00:45:15.308Z,13.4
2019-05-16T00:48:15.218Z,13.4
2019-05-16T00:51:15.411Z,13.4
2019-05-16T00:54:15.151Z,13.4
2019-05-16T00:57:15.664Z,13.4
2019-05-16T01:00:18.034Z,13.4
2019-05-16T01:03:15.533Z,13.4
2019-05-16T01:06:19.119Z,13.4
2019-05-16T01:09:15.359Z,13.4
2019-05-16T01:12:14.906Z,13.4
2019-05-16T01:15:14.837Z,13.4
2019-05-16T01:18:15.219Z,13.3
2019-05-16T01:21:15.401Z,13.3
2019-05-16T01:24:15.215Z,13.3
2019-05-16T01:27:15.624Z,13.3
2019-05-16T01:30:15.241Z,13.3
2019-05-16T01:33:15.120Z,13.3
2019-05-16T01:36:14.913Z,13.3
2019-05-16T01:39:15.167Z,13.3
2019-05-16T01:42:15.148Z,13.3
2019-05-16T01:45:15.665Z,13.3
2019-05-16T01:48:15.193Z,13.3
2019-05-16T01:51:15.729Z,13.2
2019-05-16T01:54:15.363Z,13.2
2019-05-16T01:57:17.915Z,13.1
2019-05-16T02:00:15.515Z,13.0
2019-05-16T02:03:15.047Z,13.0
2019-05-16T02:06:18.171Z,12.9
2019-05-16T02:09:15.718Z,12.9
2019-05-16T02:12:15.289Z,12.8
2019-05-16T02:15:14.948Z,12.8
2019-05-16T02:18:15.060Z,12.7
2019-05-16T02:21:15.554Z,12.7
2019-05-16T02:24:15.293Z,12.7
2019-05-16T02:27:15.076Z,12.7
2019-05-16T02:30:15.292Z,12.6
2019-05-16T02:33:14.961Z,12.6
2019-05-16T02:36:15.312Z,12.6
2019-05-16T02:39:15.780Z,12.6
2019-05-16T02:42:15.102Z,12.6
2019-05-16T02:45:15.674Z,12.6
2019-05-16T02:48:14.939Z,12.6
2019-05-16T02:51:15.303Z,12.6
2019-05-16T02:54:14.953Z,12.6
2019-05-16T02:57:15.148Z,12.6
2019-05-16T03:00:15.082Z,12.6
2019-05-16T03:03:15.778Z,12.6
2019-05-16T03:06:15.220Z,12.6
2019-05-16T03:09:15.627Z,12.5
2019-05-16T03:12:15.061Z,12.6
2019-05-16T03:15:15.517Z,12.6
2019-05-16T03:18:15.641Z,12.6
2019-05-16T03:21:15.573Z,12.6
2019-05-16T03:24:15.330Z,12.6
2019-05-16T03:27:15.576Z,12.6
2019-05-16T03:30:16.895Z,12.6
2019-05-16T03:33:22.390Z,12.6
2019-05-16T03:36:16.072Z,12.6
2019-05-16T03:39:15.314Z,12.5
2019-05-16T03:42:15.811Z,12.5
2019-05-16T03:45:15.663Z,12.5
2019-05-16T03:48:15.597Z,12.5
2019-05-16T03:51:15.194Z,12.6
2019-05-16T03:54:15.374Z,12.6
2019-05-16T03:57:14.964Z,12.5
2019-05-16T04:00:15.180Z,12.5
2019-05-16T04:03:14.993Z,12.5
2019-05-16T04:06:15.314Z,12.6
2019-05-16T04:09:15.692Z,12.6
2019-05-16T04:12:15.094Z,12.5
2019-05-16T04:15:15.330Z,12.5
2019-05-16T04:18:15.743Z,12.5
2019-05-16T04:21:17.582Z,12.5
2019-05-16T04:24:15.482Z,12.6
2019-05-16T04:27:15.584Z,12.6
2019-05-16T04:30:15.571Z,12.6
2019-05-16T04:33:15.904Z,12.6
2019-05-16T04:36:15.668Z,12.6
2019-05-16T04:39:15.095Z,12.6
2019-05-16T04:42:15.367Z,12.7
2019-05-16T04:45:15.837Z,12.7
2019-05-16T04:48:15.316Z,12.8
2019-05-16T04:51:15.793Z,12.9
2019-05-16T04:54:15.150Z,12.9
2019-05-16T04:57:15.498Z,13.0
2019-05-16T05:00:16.058Z,13.1
2019-05-16T05:03:15.765Z,13.2
2019-05-16T05:06:15.305Z,13.3
2019-05-16T05:09:15.754Z,13.5
2019-05-16T05:12:15.303Z,13.6
2019-05-16T05:15:15.115Z,13.8
2019-05-16T05:18:15.230Z,13.9
2019-05-16T05:21:15.024Z,14.0
2019-05-16T05:24:15.768Z,14.2
2019-05-16T05:27:15.766Z,14.3
2019-05-16T05:30:15.868Z,14.4
2019-05-16T05:33:15.831Z,14.6
2019-05-16T05:36:15.053Z,14.7
2019-05-16T05:39:15.751Z,14.9
2019-05-16T05:42:15.913Z,15.0
2019-05-16T05:45:15.056Z,15.1
2019-05-16T05:48:15.077Z,15.2
2019-05-16T05:51:15.519Z,15.2
2019-05-16T05:54:15.499Z,15.3
2019-05-16T05:57:15.329Z,15.4
2019-05-16T06:00:15.519Z,15.5
2019-05-16T06:03:14.933Z,15.5
2019-05-16T06:06:15.408Z,15.6
2019-05-16T06:09:26.193Z,15.7
2019-05-16T06:12:15.769Z,15.6
2019-05-16T06:15:15.806Z,15.6
2019-05-16T06:18:15.164Z,15.6
2019-05-16T06:21:15.117Z,15.6
2019-05-16T06:24:16.367Z,15.7
2019-05-16T06:27:14.966Z,15.6
2019-05-16T06:30:14.950Z,15.9
2019-05-16T06:33:15.099Z,16.9
2019-05-16T06:36:15.124Z,18.1
2019-05-16T06:39:15.210Z,18.4
2019-05-16T06:42:15.787Z,18.6
2019-05-16T06:45:15.695Z,18.7
2019-05-16T06:48:15.218Z,18.6
2019-05-16T06:51:15.145Z,19.0
2019-05-16T06:54:15.138Z,19.4
2019-05-16T06:57:15.634Z,20.3
2019-05-16T07:00:15.870Z,21.5
2019-05-16T07:03:15.778Z,22.2
2019-05-16T07:06:37.840Z,21.9
2019-05-16T07:09:15.727Z,21.7
2019-05-16T07:12:15.672Z,21.3
2019-05-16T07:15:15.509Z,21.0
2019-05-16T07:18:15.458Z,20.8
2019-05-16T07:21:15.656Z,20.4
2019-05-16T07:24:17.022Z,20.0
2019-05-16T07:27:15.160Z,19.7
2019-05-16T07:30:15.977Z,19.9
2019-05-16T07:33:15.838Z,19.9
2019-05-16T07:36:16.106Z,19.9
2019-05-16T07:39:15.402Z,19.6
2019-05-16T07:42:15.373Z,19.5
2019-05-16T07:45:15.321Z,19.2
2019-05-16T07:48:15.397Z,19.1
2019-05-16T07:51:15.433Z,19.2
2019-05-16T07:54:15.644Z,19.0
2019-05-16T07:57:19.495Z,19.2
2019-05-16T08:00:15.201Z,19.4
2019-05-16T08:03:15.578Z,19.5
2019-05-16T08:06:15.144Z,19.7
2019-05-16T08:09:15.393Z,20.2
2019-05-16T08:12:15.278Z,20.9
2019-05-16T08:15:15.711Z,21.8
2019-05-16T08:18:15.246Z,22.2
2019-05-16T08:21:16.844Z,22.5
2019-05-16T08:24:15.526Z,22.9
2019-05-16T08:27:15.736Z,23.6
2019-05-16T08:30:15.425Z,24.7
2019-05-16T08:33:15.453Z,24.8
2019-05-16T08:36:15.745Z,24.8
2019-05-16T08:39:14.938Z,24.5
2019-05-16T08:42:15.797Z,24.7
2019-05-16T08:45:15.622Z,25.5
2019-05-16T08:48:15.003Z,25.9
2019-05-16T08:51:15.501Z,26.0
2019-05-16T08:54:15.147Z,26.7
2019-05-16T08:57:27.100Z,26.6
2019-05-16T09:00:15.642Z,26.5
2019-05-16T09:03:15.109Z,25.6
2019-05-16T09:06:15.784Z,25.1
2019-05-16T09:12:17.228Z,25.0
2019-05-16T09:15:17.044Z,25.2
2019-05-16T09:18:17.809Z,25.4
2019-05-16T09:21:18.282Z,25.2
2019-05-16T09:24:17.868Z,25.2
2019-05-16T09:27:17.954Z,25.3
2019-05-16T09:30:17.043Z,25.3
2019-05-16T09:33:17.708Z,25.6
2019-05-16T09:36:17.449Z,25.8
2019-05-16T09:39:17.082Z,26.0
2019-05-16T09:42:17.154Z,26.0
2019-05-16T09:45:17.124Z,25.8
2019-05-16T09:48:18.297Z,26.1
2019-05-16T09:51:17.253Z,26.8
2019-05-16T09:54:16.819Z,27.3
2019-05-16T09:57:17.523Z,28.3
2019-05-16T10:00:17.743Z,29.2
2019-05-16T10:03:17.833Z,30.0
2019-05-16T10:06:19.057Z,31.1
2019-05-16T10:09:17.448Z,32.2
2019-05-16T10:12:18.527Z,33.0
2019-05-16T10:15:17.432Z,33.1
2019-05-16T10:18:16.879Z,33.2
2019-05-16T10:21:20.266Z,33.0
2019-05-16T10:24:15.816Z,33.6
2019-05-16T10:27:17.131Z,34.6
2019-05-16T10:30:17.411Z,35.7
2019-05-16T10:33:18.878Z,36.2
2019-05-16T10:36:17.223Z,36.5
2019-05-16T10:39:15.931Z,36.8
2019-05-16T10:42:27.868Z,36.9
2019-05-16T10:45:16.619Z,36.9
2019-05-16T10:48:17.518Z,37.0
2019-05-16T10:51:17.010Z,38.0
2019-05-16T10:54:18.066Z,38.4
2019-05-16T10:57:15.274Z,38.7
2019-05-16T11:00:36.834Z,39.0
2019-05-16T11:03:17.091Z,38.8
2019-05-16T11:06:25.257Z,37.9
2019-05-16T11:09:17.364Z,35.7
2019-05-16T11:12:19.831Z,33.9
2019-05-16T11:15:17.222Z,32.8
2019-05-16T11:18:17.523Z,31.8
2019-05-16T11:21:18.921Z,31.1
2019-05-16T11:24:15.132Z,30.3
2019-05-16T11:27:15.325Z,30.0
2019-05-16T11:30:17.797Z,29.5
2019-05-16T11:33:17.340Z,29.1
2019-05-16T11:36:16.699Z,28.9
2019-05-16T11:39:17.385Z,28.4
2019-05-16T11:42:17.486Z,27.8
2019-05-16T11:45:16.519Z,27.9
2019-05-16T11:48:17.155Z,28.3
2019-05-16T11:51:17.524Z,28.7
2019-05-16T11:54:15.444Z,29.2
2019-05-16T11:57:17.737Z,29.4
2019-05-16T12:00:17.796Z,29.4
2019-05-16T12:03:17.122Z,29.2
2019-05-16T12:06:17.128Z,29.2
2019-05-16T12:09:17.757Z,29.2
2019-05-16T12:12:16.526Z,29.2
2019-05-16T12:15:19.429Z,29.3
2019-05-16T12:18:17.296Z,29.2
2019-05-16T12:21:17.243Z,29.1
2019-05-16T12:24:29.219Z,28.8
2019-05-16T12:27:17.199Z,28.5
2019-05-16T12:30:17.670Z,27.8
2019-05-16T12:33:18.570Z,27.4
2019-05-16T12:36:17.449Z,27.3
2019-05-16T12:39:17.235Z,27.3
2019-05-16T12:42:15.244Z,27.2
2019-05-16T12:45:15.317Z,27.2
2019-05-16T12:48:19.936Z,27.2
2019-05-16T12:51:17.137Z,27.2
2019-05-16T12:54:18.136Z,27.3
2019-05-16T12:57:15.227Z,27.4
2019-05-16T13:00:16.385Z,27.7
2019-05-16T13:03:15.590Z,27.9
2019-05-16T13:06:17.249Z,28.1
2019-05-16T13:09:15.207Z,28.1
2019-05-16T13:12:17.476Z,27.8
2019-05-16T13:15:18.034Z,27.6
2019-05-16T13:18:16.946Z,27.5
2019-05-16T13:21:17.898Z,27.5
2019-05-16T13:24:18.305Z,26.9
2019-05-16T13:27:22.621Z,26.6
2019-05-16T13:30:17.321Z,26.4
2019-05-16T13:33:17.824Z,26.3
2019-05-16T13:36:17.424Z,26.4
2019-05-16T13:39:17.033Z,26.4
2019-05-16T13:42:16.664Z,26.3
2019-05-16T13:45:17.869Z,26.3
2019-05-16T13:48:17.255Z,26.3
2019-05-16T13:51:18.485Z,26.1
2019-05-16T13:54:17.682Z,25.8
2019-05-16T13:57:17.163Z,25.6
2019-05-16T14:00:17.378Z,25.4
2019-05-16T14:03:17.893Z,25.3
2019-05-16T14:06:18.399Z,25.0
2019-05-16T14:09:15.105Z,24.7
2019-05-16T14:12:17.539Z,24.7
2019-05-16T14:15:17.891Z,24.6
2019-05-16T14:18:17.715Z,24.2
2019-05-16T14:21:18.158Z,23.7
2019-05-16T14:24:17.821Z,23.4
2019-05-16T14:27:17.299Z,23.2
2019-05-16T14:30:17.661Z,22.8
2019-05-16T14:33:17.138Z,22.4
2019-05-16T14:36:15.162Z,22.1
2019-05-16T14:39:18.899Z,21.6
2019-05-16T14:42:17.853Z,21.4
2019-05-16T14:45:16.958Z,21.2
2019-05-16T14:48:18.220Z,20.7
2019-05-16T14:51:17.711Z,20.2
2019-05-16T14:54:15.505Z,20.0
2019-05-16T14:57:16.685Z,19.8
2019-05-16T15:00:18.123Z,19.4
2019-05-16T15:03:17.920Z,19.2
2019-05-16T15:06:17.985Z,19.0
2019-05-16T15:09:17.348Z,18.7
2019-05-16T15:12:17.262Z,18.5
2019-05-16T15:15:21.194Z,18.4
2019-05-16T15:18:17.751Z,18.2
2019-05-16T15:21:17.615Z,18.2
2019-05-16T15:24:17.763Z,18.4
2019-05-16T15:27:16.869Z,18.5
2019-05-16T15:30:17.160Z,18.5
2019-05-16T15:33:19.358Z,18.4
2019-05-16T15:36:16.701Z,18.2
2019-05-16T15:39:17.055Z,18.0
2019-05-16T15:42:18.076Z,17.9
2019-05-16T15:45:17.624Z,17.7
2019-05-16T15:48:17.275Z,17.5
2019-05-16T15:51:19.038Z,17.3
2019-05-16T15:54:17.819Z,17.0
2019-05-16T15:57:17.469Z,16.9
2019-05-16T16:00:18.137Z,16.9
2019-05-16T16:03:17.592Z,16.8
2019-05-16T16:06:17.764Z,16.5
2019-05-16T16:09:17.323Z,16.2
2019-05-16T16:12:17.005Z,16.0
2019-05-16T16:15:17.297Z,16.0
2019-05-16T16:18:19.497Z,16.0
2019-05-16T16:21:16.654Z,16.0
2019-05-16T16:24:19.051Z,16.1
2019-05-16T16:27:16.780Z,16.0
2019-05-16T16:30:15.133Z,16.0
2019-05-16T16:33:22.629Z,16.0
2019-05-16T16:36:17.170Z,16.0
2019-05-16T16:39:15.235Z,15.8
2019-05-16T16:42:15.446Z,15.7
2019-05-16T16:45:16.812Z,15.7
2019-05-16T16:48:17.109Z,15.6
2019-05-16T16:51:17.697Z,15.4
2019-05-16T16:54:17.081Z,15.3
2019-05-16T16:57:17.680Z,15.3
2019-05-16T17:00:17.518Z,15.2
2019-05-16T17:03:16.680Z,15.1
2019-05-16T17:06:17.481Z,14.9
2019-05-16T17:09:15.638Z,15.0
2019-05-16T17:12:15.690Z,14.9
2019-05-16T17:15:17.081Z,14.8
2019-05-16T17:18:17.210Z,14.8
2019-05-16T17:21:17.107Z,14.7
2019-05-16T17:24:16.826Z,14.6
2019-05-16T17:27:14.999Z,14.5
2019-05-16T17:30:16.952Z,14.3
2019-05-16T17:33:17.895Z,14.2
2019-05-16T17:36:17.201Z,14.0
2019-05-16T17:39:18.053Z,13.9
2019-05-16T17:42:16.537Z,13.7
2019-05-16T17:45:14.891Z,13.5
2019-05-16T17:48:17.300Z,13.4
2019-05-16T17:51:16.883Z,13.3
2019-05-16T17:54:17.284Z,13.3
2019-05-16T17:57:16.928Z,13.3
2019-05-16T18:00:24.239Z,13.2
2019-05-16T18:03:17.385Z,13.1
2019-05-16T18:06:17.010Z,13.0
2019-05-16T18:09:17.076Z,12.9
2019-05-16T18:12:17.534Z,12.9
2019-05-16T18:15:15.710Z,12.9
2019-05-16T18:18:17.509Z,12.8
2019-05-16T18:21:17.006Z,12.8
2019-05-16T18:24:16.672Z,12.7
2019-05-16T18:27:17.238Z,12.7
2019-05-16T18:30:16.688Z,12.7
2019-05-16T18:33:16.650Z,12.7
2019-05-16T18:36:16.981Z,12.6
2019-05-16T18:39:15.088Z,12.6
2019-05-16T18:42:16.771Z,12.6
2019-05-16T18:45:16.539Z,12.6
2019-05-16T18:48:15.637Z,12.6
2019-05-16T18:51:15.774Z,12.5
2019-05-16T18:54:17.352Z,12.5
2019-05-16T18:57:17.519Z,12.5
2019-05-16T19:00:17.573Z,12.5
2019-05-16T19:03:16.467Z,12.5
2019-05-16T19:06:16.995Z,12.5
2019-05-16T19:09:16.599Z,12.4
2019-05-16T19:12:16.995Z,12.4
2019-05-16T19:15:17.542Z,12.2
2019-05-16T19:18:17.072Z,12.2
2019-05-16T19:21:16.908Z,12.3
2019-05-16T19:24:16.464Z,12.3
2019-05-16T19:27:17.239Z,12.3
2019-05-16T19:30:15.192Z,12.3
2019-05-16T19:33:17.455Z,12.3
2019-05-16T19:36:16.563Z,12.3
2019-05-16T19:39:15.575Z,12.2
2019-05-16T19:42:17.088Z,12.2
2019-05-16T19:45:16.972Z,12.1
2019-05-16T19:48:17.469Z,12.2
2019-05-16T19:51:16.315Z,12.2
2019-05-16T19:54:16.370Z,12.2
2019-05-16T19:57:17.379Z,12.2
2019-05-16T20:00:17.149Z,12.2
2019-05-16T20:03:16.655Z,12.2
2019-05-16T20:06:16.859Z,12.2
2019-05-16T20:09:16.611Z,12.2
2019-05-16T20:12:16.892Z,12.3
2019-05-16T20:15:16.556Z,12.3
2019-05-16T20:18:18.173Z,12.3
2019-05-16T20:21:18.148Z,12.3
2019-05-16T20:24:16.691Z,12.3
2019-05-16T20:27:16.993Z,12.3
2019-05-16T20:30:17.139Z,12.2
2019-05-16T20:33:17.671Z,12.1
2019-05-16T20:36:17.159Z,12.0
2019-05-16T20:39:17.229Z,11.9
2019-05-16T20:42:17.065Z,11.9
2019-05-16T20:45:20.811Z,11.8
2019-05-16T20:48:18.243Z,11.8
2019-05-16T20:51:16.552Z,11.8
2019-05-16T20:54:17.371Z,11.8
2019-05-16T20:57:17.237Z,11.8
2019-05-16T21:00:17.507Z,11.7
2019-05-16T21:03:16.289Z,11.7
2019-05-16T21:06:17.087Z,11.6
2019-05-16T21:09:16.936Z,11.6
2019-05-16T21:12:17.299Z,11.5
2019-05-16T21:15:17.010Z,11.4
2019-05-16T21:18:16.578Z,11.3
2019-05-16T21:21:16.595Z,11.2
2019-05-16T21:24:15.073Z,11.2
2019-05-16T21:27:16.891Z,11.3
2019-05-16T21:30:16.432Z,11.4
2019-05-16T21:33:16.504Z,11.6
2019-05-16T21:36:16.102Z,11.8
2019-05-16T21:39:17.472Z,11.9
2019-05-16T21:42:16.624Z,12.0
2019-05-16T21:45:15.293Z,11.9
2019-05-16T21:48:16.342Z,11.8
2019-05-16T21:51:17.067Z,11.7
2019-05-16T21:54:15.764Z,11.7
2019-05-16T21:57:17.840Z,11.6
2019-05-16T22:00:15.038Z,11.5
2019-05-16T22:03:15.680Z,11.3
2019-05-16T22:06:16.694Z,11.2
2019-05-16T22:09:15.748Z,11.2
2019-05-16T22:12:17.398Z,11.2
2019-05-16T22:15:17.101Z,11.2
2019-05-16T22:18:16.570Z,11.2
2019-05-16T22:21:16.695Z,11.2
2019-05-16T22:24:17.200Z,11.1
2019-05-16T22:27:17.252Z,11.0
2019-05-16T22:30:16.471Z,11.0
2019-05-16T22:33:17.720Z,11.0
2019-05-16T22:36:17.337Z,11.0
2019-05-16T22:39:17.200Z,11.0
2019-05-16T22:42:17.485Z,11.0
2019-05-16T22:45:17.573Z,10.9
2019-05-16T22:48:17.334Z,11.0
2019-05-16T22:51:16.525Z,11.0
2019-05-16T22:54:17.062Z,11.0
2019-05-16T22:57:17.417Z,10.9
2019-05-16T23:00:20.261Z,10.9
2019-05-16T23:03:17.370Z,10.9
2019-05-16T23:06:16.264Z,10.9
2019-05-16T23:09:16.475Z,10.8
2019-05-16T23:12:17.349Z,10.8
2019-05-16T23:15:17.090Z,10.8
2019-05-16T23:18:17.106Z,10.8
2019-05-16T23:21:16.965Z,10.9
2019-05-16T23:24:17.067Z,10.9
2019-05-16T23:27:14.929Z,11.0
2019-05-16T23:30:16.466Z,11.1
2019-05-16T23:33:15.746Z,11.1
2019-05-16T23:36:17.432Z,11.1
2019-05-16T23:39:15.230Z,11.1
2019-05-16T23:42:15.114Z,11.1
2019-05-16T23:45:17.147Z,11.1
2019-05-16T23:48:16.404Z,11.1
2019-05-16T23:51:16.937Z,11.1
2019-05-16T23:54:17.221Z,11.1
2019-05-16T23:57:15.152Z,11.1
